< < Back
Terminal Aerodrome Forecast


Current Version              Previous Versions:   1  2  3  4  5  6  7  8  9  

Terminal Aerodrome Forecast

378
FTUS42 KMLB 292336
TAFDAB
TAF
KDAB 292336Z 3000/3024 12005KT P6SM VCTS SCT040CB SCT100 BKN250
     FM300200 00000KT P6SM FEW025 BKN250
     FM301400 27006KT P6SM SCT025
     FM301700 06008KT P6SM SCT040 BKN250=

Latest METAR

608
SAUS80 KWBC 302200
MTRDAB
METAR KDAB 302153Z 11007KT 10SM FEW045 FEW060 BKN110 30/23 A2989 RMK AO2
SLP122 CB DSNT N SW T03000228


USA.gov is the U.S. government's official web portal to all federal, state and local government web resources and services.